Time;durP1;ratioP1;P1;durP2;ratioP2;P2;SDS_P1;SDS_P2;PMS_P1;PMS_P2;Temp;Humidity;BMP_temperature;BMP_pressure;BME280_temperature;BME280_humidity;BME280_pressure;Samples;Min_cycle;Max_cycle;Signal;HPM_P1;HPM_P2
2021/09/18 00:01:49;;;;;;;5.50;4.93;;;;;;;29.18;65.09;100850.25;5067341;27;69771;-38
2021/09/18 00:04:21;;;;;;;6.82;5.80;;;;;;;29.28;65.07;100866.88;5068749;27;65478;-38
2021/09/18 00:06:52;;;;;;;6.63;5.43;;;;;;;29.22;66.51;100856.06;5061903;27;70066;-39
2021/09/18 00:09:23;;;;;;;6.35;5.80;;;;;;;29.37;66.16;100870.19;5071160;28;65385;-38
2021/09/18 00:11:54;;;;;;;8.63;6.07;;;;;;;29.30;66.74;100861.25;5067798;28;70033;-38
2021/09/18 00:14:25;;;;;;;6.15;5.60;;;;;;;29.44;66.49;100880.97;5062221;28;66372;-38
2021/09/18 00:16:56;;;;;;;6.75;6.10;;;;;;;29.45;66.69;100877.22;5068467;27;70299;-39
2021/09/18 00:19:29;;;;;;;6.57;5.97;;;;;;;29.45;66.91;100893.44;5070000;28;66691;-38
2021/09/18 00:22:00;;;;;;;9.00;6.03;;;;;;;29.53;66.80;100896.78;5063465;28;70810;-38
2021/09/18 00:24:31;;;;;;;6.17;5.67;;;;;;;29.48;67.10;100898.44;5063827;28;66142;-38
2021/09/18 00:27:07;;;;;;;7.55;5.72;;;;;;;29.59;66.44;100905.91;5062915;28;69961;-39
2021/09/18 00:29:38;;;;;;;7.80;7.03;;;;;;;29.58;66.70;100894.22;5067992;28;65734;-38
2021/09/18 00:32:10;;;;;;;6.17;5.67;;;;;;;29.59;66.91;100895.09;5073140;28;70165;-38
2021/09/18 00:34:43;;;;;;;10.55;6.28;;;;;;;29.58;66.83;100893.41;5062124;28;66340;-38
2021/09/18 00:37:20;;;;;;;6.65;6.15;;;;;;;29.62;67.07;100897.38;5062565;28;69656;-38
2021/09/18 00:39:54;;;;;;;7.00;6.40;;;;;;;29.64;67.15;100903.41;5069960;28;66214;-38
2021/09/18 00:42:31;;;;;;;7.43;6.07;;;;;;;29.64;67.39;100906.09;5065580;28;69177;-38
2021/09/18 00:45:07;;;;;;;6.15;5.55;;;;;;;29.63;67.27;100901.75;5064864;28;65700;-39
2021/09/18 00:47:41;;;;;;;6.55;6.00;;;;;;;29.67;66.82;100902.16;5072919;27;69958;-38
2021/09/18 00:50:26;;;;;;;7.10;6.25;;;;;;;29.70;66.94;100908.00;5066716;28;66456;-38
2021/09/18 00:53:01;;;;;;;7.40;6.90;;;;;;;29.70;67.02;100909.84;5061535;28;70463;-38
2021/09/18 00:55:40;;;;;;;9.73;6.82;;;;;;;29.59;67.87;100895.91;5063392;28;65602;-38
2021/09/18 00:58:23;;;;;;;7.03;6.35;;;;;;;29.70;67.19;100908.00;5071696;28;70195;-38
2021/09/18 01:00:55;;;;;;;7.10;6.60;;;;;;;29.69;68.08;100911.72;5070817;28;65177;-39
2021/09/18 01:03:27;;;;;;;7.25;6.55;;;;;;;29.71;67.81;100906.94;5063314;28;69941;-38
2021/09/18 01:06:08;;;;;;;6.50;5.90;;;;;;;29.73;67.67;100906.75;5072480;28;65898;-38
2021/09/18 01:08:42;;;;;;;8.35;7.07;;;;;;;29.80;67.56;100912.94;5068265;27;69863;-40
2021/09/18 01:11:28;;;;;;;7.53;6.72;;;;;;;29.82;67.64;100925.22;5078952;27;65764;-39
2021/09/18 01:14:02;;;;;;;11.25;5.78;;;;;;;29.76;66.57;100923.34;5064480;28;70470;-38
2021/09/18 01:16:37;;;;;;;7.05;5.38;;;;;;;29.81;66.71;100926.25;5062540;28;65514;-38
2021/09/18 01:19:11;;;;;;;7.80;6.20;;;;;;;29.79;66.23;100917.53;5057655;28;70512;-39
2021/09/18 01:21:55;;;;;;;7.25;6.15;;;;;;;29.88;66.31;100930.81;5052646;28;65542;-40
2021/09/18 01:24:29;;;;;;;7.28;6.68;;;;;;;29.91;65.90;100936.63;5056912;28;69098;-40
2021/09/18 01:27:02;;;;;;;7.10;6.47;;;;;;;29.91;65.96;100927.69;5070711;28;66590;-39
2021/09/18 01:29:35;;;;;;;18.13;7.88;;;;;;;29.95;68.15;100935.16;5069031;28;69854;-39
2021/09/18 01:32:08;;;;;;;25.25;9.45;;;;;;;30.04;68.73;100941.19;5068514;28;65762;-39
2021/09/18 01:34:44;;;;;;;15.13;9.90;;;;;;;30.14;68.89;100944.25;5064220;28;69838;-39
2021/09/18 01:38:06;;;;;;;14.48;10.07;;;;;;;30.21;67.77;100930.69;5091238;27;43793;-25
2021/09/18 01:40:42;;;;;;;12.90;10.25;;;;;;;30.31;67.29;100941.09;5083954;27;69689;-25
2021/09/18 01:43:18;;;;;;;13.73;9.98;;;;;;;30.35;67.47;100926.09;5083026;27;65713;-27
2021/09/18 01:45:49;;;;;;;21.33;9.88;;;;;;;30.41;67.85;100942.28;5085554;27;70535;-26
2021/09/18 01:48:21;;;;;;;18.03;10.17;;;;;;;30.43;67.93;100934.78;5083142;27;65928;-26
2021/09/18 01:50:57;;;;;;;14.20;10.05;;;;;;;30.48;68.05;100936.84;5069817;27;69480;-29
2021/09/18 01:53:29;;;;;;;14.40;10.50;;;;;;;30.55;66.77;100932.22;5087517;27;65382;-25
2021/09/18 01:56:01;;;;;;;22.35;9.85;;;;;;;30.47;66.94;100924.34;5057278;27;69939;-26
2021/09/18 01:58:32;;;;;;;19.47;10.00;;;;;;;30.55;66.97;100926.81;5083840;27;66044;-25
2021/09/18 02:01:04;;;;;;;11.73;10.67;;;;;;;30.55;67.11;100920.56;5086461;27;69892;-26
2021/09/18 02:03:36;;;;;;;12.65;10.30;;;;;;;30.54;67.22;100921.63;5077355;27;66187;-26
2021/09/18 02:06:08;;;;;;;11.25;10.13;;;;;;;30.55;67.28;100921.41;5085449;27;69444;-25
2021/09/18 02:08:41;;;;;;;17.75;10.55;;;;;;;30.54;67.40;100929.75;5089996;27;65256;-25
2021/09/18 02:11:31;;;;;;;11.85;9.95;;;;;;;30.56;66.79;100928.44;5090779;27;70277;-26
2021/09/18 02:14:08;;;;;;;12.05;11.05;;;;;;;30.57;66.59;100929.31;5074869;27;66009;-26
2021/09/18 02:16:40;;;;;;;15.75;11.90;;;;;;;30.61;65.77;100928.63;5083196;27;69280;-26
2021/09/18 02:19:14;;;;;;;16.02;12.50;;;;;;;30.53;66.10;100925.38;5056489;27;66014;-24
2021/09/18 02:21:47;;;;;;;13.88;12.65;;;;;;;30.61;65.36;100925.94;5095221;27;69619;-25
2021/09/18 02:24:22;;;;;;;15.70;12.77;;;;;;;30.61;65.62;100916.97;5076751;27;65133;-25
2021/09/18 02:26:54;;;;;;;13.30;12.15;;;;;;;30.62;65.68;100924.03;5106353;27;69404;-25
2021/09/18 02:29:34;;;;;;;12.98;11.73;;;;;;;30.65;65.05;100924.47;5090064;27;66222;-26
2021/09/18 02:32:06;;;;;;;;;;;;;;;30.66;65.10;100915.28;5079145;27;69497;-31
2021/09/18 02:34:41;;;;;;;13.48;12.25;;;;;;;30.78;65.05;100915.41;5112679;27;66675;-30
2021/09/18 02:37:15;;;;;;;16.38;13.70;;;;;;;30.71;66.33;100901.94;5111831;27;70264;-30
2021/09/18 02:39:50;;;;;;;22.35;15.60;;;;;;;30.79;66.61;100905.44;5088399;27;66207;-31
2021/09/18 02:42:26;;;;;;;19.35;14.93;;;;;;;30.85;67.42;100907.28;5114028;27;70573;-30
2021/09/18 02:44:59;;;;;;;19.02;14.32;;;;;;;30.87;67.60;100905.16;5093266;27;66869;-30
2021/09/18 02:47:31;;;;;;;21.17;13.82;;;;;;;30.79;68.02;100872.94;5090131;27;69385;-31
2021/09/18 02:50:04;;;;;;;;;;;;;;;30.87;68.40;100897.03;5070137;27;66604;-30
2021/09/18 02:52:36;;;;;;;16.05;13.70;;;;;;;30.95;68.26;100899.47;5089232;27;69250;-31
2021/09/18 02:55:09;;;;;;;24.73;14.20;;;;;;;30.99;68.52;100895.28;5076460;27;66528;-31
2021/09/18 02:57:40;;;;;;;18.67;14.07;;;;;;;31.01;67.95;100904.03;5066904;27;70015;-30
2021/09/18 03:00:13;;;;;;;16.00;13.20;;;;;;;30.98;68.67;100892.78;5076417;27;65752;-31
2021/09/18 03:02:45;;;;;;;17.65;13.40;;;;;;;31.04;68.23;100909.00;5069761;27;69143;-31
2021/09/18 03:05:16;;;;;;;;;;;;;;;31.04;68.32;100911.72;5095889;27;65665;-31
2021/09/18 03:07:48;;;;;;;15.85;13.23;;;;;;;31.15;67.84;100911.00;5095160;27;71039;-31
2021/09/18 03:10:19;;;;;;;15.45;12.00;;;;;;;31.12;68.39;100905.19;5083631;27;66304;-34
2021/09/18 03:12:51;;;;;;;15.30;11.57;;;;;;;31.09;68.33;100906.47;5089211;27;70117;-35
2021/09/18 03:15:22;;;;;;;13.30;11.13;;;;;;;31.19;68.24;100916.81;5079272;27;64999;-36
2021/09/18 03:17:56;;;;;;;15.15;11.52;;;;;;;31.20;67.64;100901.38;5097011;27;70714;-34
2021/09/18 03:20:27;;;;;;;12.30;11.18;;;;;;;31.23;67.64;100903.63;5091096;27;66155;-33
2021/09/18 03:22:58;;;;;;;14.10;11.87;;;;;;;31.23;67.55;100906.34;5061484;27;69989;-33
2021/09/18 03:25:29;;;;;;;14.10;10.60;;;;;;;31.26;67.41;100908.59;5093952;27;66110;-33
2021/09/18 03:28:01;;;;;;;12.40;11.33;;;;;;;31.29;67.55;100905.47;5069134;27;69918;-35
2021/09/18 03:30:32;;;;;;;14.43;10.50;;;;;;;31.37;66.79;100894.34;5087505;27;65194;-36
2021/09/18 03:33:04;;;;;;;12.40;11.20;;;;;;;31.39;66.70;100903.09;5072770;27;70327;-35
2021/09/18 03:35:35;;;;;;;;;;;;;;;31.40;66.38;100902.06;5060627;27;65870;-35
2021/09/18 03:38:07;;;;;;;10.48;9.55;;;;;;;31.44;65.62;100897.84;5078477;27;70692;-35
2021/09/18 03:40:38;;;;;;;11.83;10.67;;;;;;;31.47;64.38;100897.38;5059068;27;66097;-34
2021/09/18 03:43:11;;;;;;;10.98;10.07;;;;;;;31.48;64.86;100899.06;5053755;27;69964;-35
2021/09/18 03:45:43;;;;;;;15.20;10.82;;;;;;;31.52;63.94;100904.84;5073224;27;65994;-35
2021/09/18 03:48:15;;;;;;;11.35;10.43;;;;;;;31.55;63.47;100910.66;5041156;27;69179;-36
2021/09/18 03:50:50;;;;;;;9.90;9.18;;;;;;;31.59;62.04;100901.03;5056968;27;66832;-36
2021/09/18 03:53:22;;;;;;;9.55;8.75;;;;;;;31.61;61.51;100892.66;5097240;27;69468;-35
2021/09/18 03:55:56;;;;;;;9.00;8.18;;;;;;;31.68;61.04;100898.00;5070065;27;66910;-36
2021/09/18 03:58:29;;;;;;;8.70;7.88;;;;;;;31.76;60.48;100894.97;5061429;27;69276;-35
2021/09/18 04:01:01;;;;;;;8.65;7.80;;;;;;;31.77;60.24;100885.81;5095085;27;66189;-36
2021/09/18 04:03:34;;;;;;;14.68;7.90;;;;;;;31.81;60.19;100881.56;5072145;27;69677;-35
2021/09/18 04:06:05;;;;;;;9.43;8.52;;;;;;;31.87;60.14;100879.84;5072463;27;66546;-34
2021/09/18 04:08:37;;;;;;;8.23;7.63;;;;;;;31.92;59.96;100880.03;5058111;27;69530;-35
2021/09/18 04:11:08;;;;;;;8.05;7.07;;;;;;;31.93;60.07;100868.97;5083764;27;65926;-34
2021/09/18 04:13:40;;;;;;;9.00;7.50;;;;;;;31.93;60.41;100874.38;5081666;27;69184;-35
2021/09/18 04:16:12;;;;;;;8.25;7.60;;;;;;;31.88;60.70;100865.25;5092639;27;65085;-34
2021/09/18 04:18:43;;;;;;;14.73;8.33;;;;;;;32.01;60.93;100871.38;5085454;27;69937;-34
2021/09/18 04:21:15;;;;;;;8.38;7.75;;;;;;;32.01;61.54;100865.94;5087495;27;67094;-34
2021/09/18 04:23:47;;;;;;;8.88;7.88;;;;;;;32.08;61.47;100862.31;5088456;27;70052;-39
2021/09/18 04:26:18;;;;;;;9.13;7.35;;;;;;;31.97;61.18;100859.28;5056346;27;65682;-39
2021/09/18 04:28:49;;;;;;;8.93;8.17;;;;;;;31.91;61.01;100860.22;5070163;27;70020;-41
2021/09/18 04:31:21;;;;;;;10.32;8.25;;;;;;;31.93;61.60;100862.69;5086910;27;65253;-41
2021/09/18 04:33:52;;;;;;;8.20;7.55;;;;;;;31.93;61.30;100860.81;5063837;27;70179;-40
2021/09/18 04:36:24;;;;;;;8.57;7.60;;;;;;;31.92;60.85;100861.84;5080344;27;65394;-40
2021/09/18 04:38:55;;;;;;;12.43;9.00;;;;;;;31.92;61.12;100856.44;5089782;27;68794;-40
2021/09/18 04:41:26;;;;;;;8.00;7.43;;;;;;;31.92;60.78;100851.00;5059966;27;65165;-40
2021/09/18 04:43:58;;;;;;;9.95;7.50;;;;;;;31.92;60.54;100845.56;5095069;27;69528;-40
2021/09/18 04:46:29;;;;;;;13.10;7.28;;;;;;;31.95;60.62;100839.69;5079422;27;65626;-40
2021/09/18 04:49:01;;;;;;;8.90;7.67;;;;;;;31.94;60.01;100838.06;5068006;27;69163;-40
2021/09/18 04:51:32;;;;;;;8.37;7.37;;;;;;;31.95;60.28;100833.44;5088144;27;66335;-36
2021/09/18 04:54:05;;;;;;;7.72;7.25;;;;;;;31.90;60.90;100830.56;5093312;27;70046;-41
2021/09/18 04:56:36;;;;;;;7.35;6.85;;;;;;;31.76;60.18;100825.31;5076851;27;66313;-39
2021/09/18 04:59:07;;;;;;;6.75;6.35;;;;;;;31.58;59.10;100823.44;5080952;27;69971;-39
2021/09/18 05:01:39;;;;;;;7.53;5.90;;;;;;;31.48;59.08;100822.31;5093497;27;66162;-39
2021/09/18 05:04:11;;;;;;;7.60;6.88;;;;;;;31.44;59.27;100816.50;5072547;27;69232;-40
2021/09/18 05:06:42;;;;;;;7.33;6.17;;;;;;;31.42;57.33;100824.03;5091728;27;66088;-39
2021/09/18 05:09:14;;;;;;;10.70;5.65;;;;;;;31.36;57.00;100809.50;5048089;27;69661;-39
2021/09/18 05:11:45;;;;;;;6.63;6.20;;;;;;;31.29;56.75;100800.59;5089642;27;65211;-39
2021/09/18 05:14:17;;;;;;;14.43;5.53;;;;;;;31.20;56.45;100776.72;5054306;27;70105;-39
2021/09/18 05:16:48;;;;;;;;;;;;;;;30.99;55.86;100778.00;5066494;27;66003;-38
2021/09/18 05:19:19;;;;;;;6.45;5.85;;;;;;;31.12;56.20;100762.44;5072852;27;70916;-38
2021/09/18 05:21:51;;;;;;;19.83;5.73;;;;;;;31.06;55.06;100760.59;5084340;27;65381;-37
2021/09/18 05:24:25;;;;;;;16.38;5.53;;;;;;;31.10;55.12;100756.41;5066205;27;69834;-38
2021/09/18 05:26:57;;;;;;;17.38;5.30;;;;;;;31.08;54.21;100753.06;5067486;27;65897;-37
2021/09/18 05:29:28;;;;;;;26.83;5.57;;;;;;;31.02;54.55;100743.16;5059236;27;69871;-36
2021/09/18 05:32:00;;;;;;;25.27;6.07;;;;;;;31.03;54.71;100744.78;5087705;27;65424;-36
2021/09/18 05:34:31;;;;;;;25.35;5.53;;;;;;;31.01;54.19;100744.22;5085184;27;69949;-34
2021/09/18 05:37:03;;;;;;;9.30;5.37;;;;;;;31.01;53.89;100733.38;5090054;27;65277;-37
2021/09/18 05:39:34;;;;;;;27.92;5.75;;;;;;;30.97;53.16;100728.63;5085283;27;70125;-38
2021/09/18 05:42:06;;;;;;;33.05;5.97;;;;;;;31.04;53.42;100724.78;5090580;27;65440;-37
2021/09/18 05:44:37;;;;;;;41.17;5.63;;;;;;;31.12;53.40;100719.06;5066941;27;71454;-38
2021/09/18 05:47:09;;;;;;;41.10;5.07;;;;;;;31.13;53.12;100700.94;5093465;27;65812;-38
2021/09/18 05:49:40;;;;;;;36.65;4.70;;;;;;;31.11;52.81;100693.00;5086949;27;70232;-38
2021/09/18 05:52:12;;;;;;;34.67;5.15;;;;;;;31.13;53.13;100684.69;5065790;27;65872;-38
2021/09/18 05:54:43;;;;;;;25.23;5.93;;;;;;;31.15;53.54;100675.28;5095539;27;69288;-40
2021/09/18 05:57:15;;;;;;;73.05;6.18;;;;;;;31.37;52.44;100674.81;5087219;27;65289;-35
2021/09/18 05:59:46;;;;;;;54.47;6.25;;;;;;;31.41;52.15;100676.00;5088959;27;70111;-36
2021/09/18 06:02:18;;;;;;;33.53;6.43;;;;;;;31.32;51.38;100661.91;5089415;27;66853;-36
2021/09/18 06:04:49;;;;;;;;;;;;;;;31.30;51.70;100664.03;5091318;27;69191;-36
2021/09/18 06:07:21;;;;;;;27.02;5.82;;;;;;;31.26;50.65;100643.03;5095460;27;66364;-37
2021/09/18 06:09:52;;;;;;;29.73;5.47;;;;;;;31.34;50.34;100651.69;5074172;27;69677;-35
2021/09/18 06:12:24;;;;;;;13.73;4.60;;;;;;;31.41;49.80;100654.34;5088446;27;65882;-36
2021/09/18 06:14:56;;;;;;;16.70;4.95;;;;;;;31.39;48.92;100640.16;5091613;27;69215;-35
2021/09/18 06:17:27;;;;;;;12.80;4.13;;;;;;;31.36;48.91;100644.16;5100839;27;66038;-35
2021/09/18 06:19:58;;;;;;;15.40;4.63;;;;;;;31.39;48.11;100635.56;5092012;27;70450;-36
2021/09/18 06:22:31;;;;;;;8.73;5.32;;;;;;;31.44;47.59;100620.53;5078636;27;65418;-35
2021/09/18 06:25:04;;;;;;;9.75;4.28;;;;;;;31.48;47.84;100621.69;5077289;27;70245;-36
2021/09/18 06:27:35;;;;;;;10.95;4.63;;;;;;;31.48;46.87;100608.13;5082672;27;66210;-37
2021/09/18 06:30:09;;;;;;;6.97;4.15;;;;;;;31.25;46.99;100568.22;5094910;27;70344;-36
2021/09/18 06:32:40;;;;;;;8.25;4.32;;;;;;;31.40;47.60;100582.22;5088983;27;65232;-36
2021/09/18 06:35:12;;;;;;;;;;;;;;;31.48;46.65;100610.84;5079102;27;70342;-36
2021/09/18 06:37:49;;;;;;;6.18;4.00;;;;;;;31.26;45.54;100564.44;5100536;27;66937;-36
2021/09/18 06:40:21;;;;;;;4.60;3.75;;;;;;;31.61;46.30;100594.41;5089745;27;70748;-35
2021/09/18 06:42:52;;;;;;;6.03;4.35;;;;;;;31.64;46.83;100598.53;5097465;27;66336;-35
2021/09/18 06:45:24;;;;;;;4.40;4.00;;;;;;;31.63;46.01;100591.47;5100206;27;70461;-35
2021/09/18 06:47:58;;;;;;;5.03;4.03;;;;;;;31.64;45.58;100593.09;5080684;27;66160;-37
2021/09/18 06:50:30;;;;;;;3.67;3.38;;;;;;;31.64;45.97;100588.50;5078640;27;70368;-36
2021/09/18 06:53:02;;;;;;;4.13;3.72;;;;;;;31.68;46.10;100591.56;5091383;27;66161;-37
2021/09/18 06:55:36;;;;;;;4.30;3.88;;;;;;;31.64;45.65;100595.81;5070044;27;69421;-37
2021/09/18 06:58:08;;;;;;;3.83;3.53;;;;;;;31.66;45.52;100601.84;5091974;27;65889;-36
2021/09/18 07:00:40;;;;;;;3.80;3.50;;;;;;;31.66;45.80;100607.25;5095237;27;70235;-37
2021/09/18 07:03:12;;;;;;;4.00;3.67;;;;;;;31.67;44.68;100598.06;5095559;27;65348;-36
2021/09/18 07:05:44;;;;;;;3.55;3.25;;;;;;;31.68;45.00;100600.56;5096018;27;70150;-36
2021/09/18 07:08:17;;;;;;;3.75;3.45;;;;;;;31.68;44.98;100573.44;5084908;27;64699;-37
2021/09/18 07:10:48;;;;;;;;;;;;;;;31.64;45.12;100560.56;5084258;27;70793;-37
2021/09/18 07:13:20;;;;;;;3.60;3.40;;;;;;;31.66;44.72;100548.44;5089275;27;65215;-37
2021/09/18 07:15:54;;;;;;;5.25;3.20;;;;;;;31.68;44.02;100540.06;5068005;27;70287;-37
2021/09/18 07:18:26;;;;;;;3.17;2.97;;;;;;;31.67;44.16;100532.97;5093866;27;66184;-36
2021/09/18 07:20:57;;;;;;;3.13;2.92;;;;;;;31.69;44.26;100525.44;5096858;27;70577;-37
2021/09/18 07:23:29;;;;;;;3.22;3.03;;;;;;;31.58;43.48;100525.19;5066417;27;65656;-37
2021/09/18 07:26:01;;;;;;;;;;;;;;;31.52;43.16;100553.25;5078724;27;69903;-37
2021/09/18 07:28:34;;;;;;;2.55;2.45;;;;;;;31.61;43.68;100557.25;5093344;27;65616;-37
2021/09/18 07:31:06;;;;;;;2.97;2.78;;;;;;;31.65;43.33;100551.38;5091260;27;68971;-38
2021/09/18 07:33:37;;;;;;;;;;;;;;;31.65;43.44;100545.94;5080579;27;65993;-38
2021/09/18 07:36:09;;;;;;;2.70;2.50;;;;;;;31.58;42.73;100524.38;5094145;27;70076;-36
2021/09/18 07:38:41;;;;;;;;;;;;;;;31.58;43.69;100529.78;5080870;27;65804;-37
2021/09/18 07:41:13;;;;;;;3.72;2.80;;;;;;;31.64;42.55;100528.03;5077900;27;68964;-37
2021/09/18 07:43:45;;;;;;;3.33;2.22;;;;;;;31.64;43.28;100530.75;5065369;27;65990;-38
2021/09/18 07:46:16;;;;;;;;;;;;;;;31.47;42.94;100519.75;5082123;27;69972;-36
2021/09/18 07:48:49;;;;;;;3.55;2.70;;;;;;;31.57;42.70;100506.47;5078914;27;66879;-36
2021/09/18 07:51:22;;;;;;;2.72;2.53;;;;;;;31.56;43.29;100500.19;5068127;27;69898;-35
2021/09/18 07:53:55;;;;;;;7.03;2.75;;;;;;;31.49;43.05;100485.94;5082924;27;66167;-37
2021/09/18 07:56:28;;;;;;;2.97;2.78;;;;;;;31.50;43.35;100474.03;5063575;27;70039;-37
2021/09/18 07:59:01;;;;;;;2.88;2.67;;;;;;;31.49;42.73;100477.81;5060132;27;66363;-36
2021/09/18 08:01:34;;;;;;;2.80;2.60;;;;;;;31.42;43.01;100465.41;5094035;27;69941;-38
2021/09/18 08:04:07;;;;;;;2.63;2.42;;;;;;;31.48;42.85;100487.00;5065957;27;65956;-37
2021/09/18 08:06:40;;;;;;;2.63;2.42;;;;;;;31.50;42.45;100498.41;5060003;27;68583;-36
2021/09/18 08:09:16;;;;;;;4.47;2.58;;;;;;;31.47;42.77;100501.59;5097691;27;66314;-36
2021/09/18 08:11:49;;;;;;;;;;;;;;;31.46;43.45;100499.97;5047872;27;70674;-37
2021/09/18 08:14:24;;;;;;;3.20;2.92;;;;;;;31.49;42.91;100472.38;5082203;27;66970;-36
2021/09/18 08:16:57;;;;;;;4.35;2.90;;;;;;;31.47;42.84;100452.81;5098409;27;69987;-38
2021/09/18 08:19:30;;;;;;;3.53;2.72;;;;;;;31.51;42.55;100448.59;5059509;27;66210;-36
2021/09/18 08:22:03;;;;;;;2.63;2.42;;;;;;;31.47;42.81;100447.38;5068858;27;70281;-35
2021/09/18 08:24:37;;;;;;;2.67;2.50;;;;;;;31.43;43.12;100457.06;5085957;27;65345;-36
2021/09/18 08:27:09;;;;;;;;;;;;;;;31.37;42.43;100474.25;5073009;27;69253;-37
2021/09/18 08:29:42;;;;;;;3.40;3.20;;;;;;;31.38;43.21;100470.50;5077418;27;65858;-38
2021/09/18 08:32:13;;;;;;;2.85;2.65;;;;;;;31.36;42.32;100472.59;5088958;27;70217;-36
2021/09/18 08:34:45;;;;;;;;;;;;;;;31.33;43.43;100476.56;5076763;27;66839;-38
2021/09/18 08:37:21;;;;;;;3.33;3.03;;;;;;;31.42;43.30;100482.50;5076965;27;70234;-35
2021/09/18 08:39:52;;;;;;;;;;;;;;;31.35;43.11;100460.09;5063994;27;66014;-36
2021/09/18 08:42:26;;;;;;;14.10;3.28;;;;;;;31.36;42.69;100450.91;5091972;27;70992;-39
2021/09/18 08:45:01;;;;;;;3.53;3.10;;;;;;;31.23;42.61;100456.50;5060754;27;66482;-37
2021/09/18 08:47:35;;;;;;;7.03;3.17;;;;;;;31.12;43.11;100445.44;5075941;27;68984;-37
2021/09/18 08:50:13;;;;;;;4.38;3.25;;;;;;;31.19;42.98;100458.88;5060237;27;66570;-36
2021/09/18 08:52:46;;;;;;;3.13;2.92;;;;;;;31.26;42.87;100461.47;5079992;27;69326;-38
2021/09/18 08:55:17;;;;;;;3.28;3.00;;;;;;;31.20;42.48;100459.69;5036188;28;65387;-37
2021/09/18 08:57:51;;;;;;;3.28;3.08;;;;;;;31.11;42.56;100467.34;5090489;27;70675;-38
2021/09/18 09:00:33;;;;;;;3.75;3.45;;;;;;;31.08;42.94;100482.16;5077401;27;65431;-36
2021/09/18 09:03:09;;;;;;;3.47;3.28;;;;;;;31.06;42.26;100484.28;5088579;27;69683;-36
2021/09/18 09:05:45;;;;;;;3.20;3.00;;;;;;;31.08;42.92;100487.59;5070983;27;66453;-36
2021/09/18 09:43:02;;;;;;;13.20;8.48;;;;;;;29.95;49.81;100496.19;5089411;27;44475;-36
2021/09/18 09:45:35;;;;;;;22.38;13.52;;;;;;;30.41;51.85;100503.03;5072543;27;69600;-36
2021/09/18 09:48:07;;;;;;;40.92;18.38;;;;;;;30.78;52.17;100508.41;5068400;27;66187;-36
2021/09/18 09:50:40;;;;;;;;;;;;;;;31.08;53.30;100503.84;5065499;27;70913;-37
2021/09/18 09:53:26;;;;;;;28.20;19.40;;;;;;;30.98;53.55;100460.25;5069265;27;65476;-36
2021/09/18 09:55:58;;;;;;;27.92;17.58;;;;;;;31.41;54.52;100518.81;5069195;27;69530;-35
2021/09/18 09:58:56;;;;;;;57.45;36.53;;;;;;;31.58;56.52;100519.78;5067071;27;65132;-37
2021/09/18 10:01:28;;;;;;;104.50;61.10;;;;;;;31.68;55.80;100519.22;5067464;27;69951;-36
2021/09/18 10:04:01;;;;;;;106.85;64.30;;;;;;;31.75;56.45;100508.22;5068612;27;66309;-35
2021/09/18 10:06:33;;;;;;;104.80;64.72;;;;;;;31.82;56.73;100509.78;5070196;27;70389;-36
2021/09/18 10:09:08;;;;;;;97.20;59.28;;;;;;;31.90;57.31;100514.03;5069521;27;65888;-36
2021/09/18 10:11:40;;;;;;;82.90;51.17;;;;;;;31.96;57.22;100526.66;5061437;27;70411;-37
2021/09/18 10:14:42;;;;;;;73.25;44.97;;;;;;;31.69;58.01;100482.88;5063839;27;65942;-36
2021/09/18 10:17:26;;;;;;;68.57;40.20;;;;;;;32.00;57.87;100527.03;5068971;27;70762;-36
2021/09/18 10:23:21;;;;;;;53.80;32.58;;;;;;;32.14;58.73;100543.88;5046718;27;69985;-37
2021/09/18 10:26:00;;;;;;;46.97;29.73;;;;;;;32.14;59.08;100538.47;5074057;27;66083;-37
2021/09/18 10:28:48;;;;;;;45.38;27.88;;;;;;;32.21;60.59;100582.59;5062179;28;70189;-37
2021/09/18 10:31:23;;;;;;;46.58;26.90;;;;;;;32.24;59.50;100584.84;5090893;27;66986;-36
2021/09/18 10:33:56;;;;;;;48.95;26.60;;;;;;;32.28;60.38;100607.72;5063251;28;70442;-38
2021/09/18 10:36:30;;;;;;;55.47;25.52;;;;;;;32.32;59.94;100627.91;5060952;28;66234;-36
2021/09/18 10:39:18;;;;;;;70.10;27.77;;;;;;;32.32;61.02;100632.47;5062953;28;70483;-44
2021/09/18 10:41:53;;;;;;;62.58;26.52;;;;;;;32.32;61.09;100622.47;5062163;28;65686;-36
2021/09/18 10:44:50;;;;;;;60.20;25.00;;;;;;;32.31;62.13;100631.66;5049946;28;69566;-36
2021/09/18 10:47:47;;;;;;;67.18;23.73;;;;;;;32.32;62.21;100644.19;5065969;28;65719;-36
2021/09/18 10:50:26;;;;;;;55.10;21.20;;;;;;;32.39;61.67;100652.19;5061925;28;69562;-37
2021/09/18 10:53:18;;;;;;;49.77;19.53;;;;;;;32.29;62.18;100639.22;5008294;27;3981342;-37
2021/09/18 10:56:05;;;;;;;39.45;18.27;;;;;;;32.38;61.87;100620.69;5050808;28;44841;-35
2021/09/18 10:59:07;;;;;;;33.88;16.65;;;;;;;32.34;61.83;100620.31;5068852;27;43962;-36
2021/09/18 11:01:52;;;;;;;31.00;15.63;;;;;;;32.37;61.32;100619.84;5066268;27;43011;-36
2021/09/18 11:04:39;;;;;;;27.13;14.27;;;;;;;32.40;62.08;100635.69;5051763;28;44374;-36
2021/09/18 11:07:54;;;;;;;21.00;12.60;;;;;;;32.35;61.84;100649.13;5061142;27;43741;-35
2021/09/18 11:10:58;;;;;;;19.35;11.75;;;;;;;32.39;61.97;100639.44;5042885;27;2576324;-40
2021/09/18 11:13:45;;;;;;;14.20;10.65;;;;;;;32.43;61.74;100632.50;5061962;27;44444;-35
2021/09/18 11:16:37;;;;;;;12.40;10.13;;;;;;;32.37;61.87;100636.13;5064007;27;2536497;-36
2021/09/18 11:19:22;;;;;;;16.27;9.55;;;;;;;32.38;62.04;100637.81;5063807;27;2635412;-35
2021/09/18 11:22:13;;;;;;;11.52;8.82;;;;;;;32.36;62.14;100629.06;5088361;27;44444;-35
2021/09/18 11:25:30;;;;;;;8.63;7.93;;;;;;;32.40;62.33;100627.56;5047169;27;2666466;-35
2021/09/18 11:28:16;;;;;;;11.85;7.97;;;;;;;32.34;62.76;100630.38;5034556;27;2687826;-36
2021/09/18 11:31:10;;;;;;;8.05;7.32;;;;;;;32.28;62.79;100627.53;5072047;27;43674;-36
2021/09/18 11:33:56;;;;;;;8.10;7.40;;;;;;;32.35;62.31;100649.13;5059432;27;44726;-36
2021/09/18 11:36:45;;;;;;;7.60;7.00;;;;;;;31.90;61.95;100576.41;5124243;27;44388;-35
2021/09/18 11:39:45;;;;;;;7.90;7.20;;;;;;;32.28;61.87;100653.84;5063756;27;44576;-35
2021/09/18 11:42:38;;;;;;;6.93;6.53;;;;;;;32.30;61.58;100657.16;5161613;27;44555;-36
2021/09/18 11:45:28;;;;;;;6.43;6.03;;;;;;;32.30;61.59;100670.72;5081768;27;44607;-35
2021/09/18 11:48:21;;;;;;;8.63;6.40;;;;;;;32.28;62.00;100651.13;5042793;27;2547315;-36
2021/09/18 11:51:08;;;;;;;6.80;5.93;;;;;;;32.20;62.19;100662.34;5125395;27;44627;-35
2021/09/18 11:54:07;;;;;;;5.80;5.47;;;;;;;32.19;61.74;100663.41;5023087;27;3973474;-35
2021/09/18 11:56:53;;;;;;;6.18;5.72;;;;;;;32.21;61.98;100674.88;5060871;27;44848;-35
2021/09/18 11:59:39;;;;;;;6.40;5.85;;;;;;;32.17;61.58;100676.38;5103547;27;43805;-35
2021/09/18 12:02:31;;;;;;;8.68;5.38;;;;;;;31.94;61.46;100637.28;5085597;27;44528;-34
2021/09/18 12:05:04;;;;;;;5.82;5.53;;;;;;;32.08;61.81;100670.47;5083998;27;70285;-35
2021/09/18 12:07:51;;;;;;;6.05;5.65;;;;;;;31.99;61.47;100653.72;5074665;27;43792;-35
2021/09/18 12:10:36;;;;;;;5.93;5.53;;;;;;;32.11;61.46;100685.47;5065049;27;44190;-37
2021/09/18 12:13:22;;;;;;;5.80;5.25;;;;;;;32.12;60.97;100687.09;5080306;27;44231;-35
2021/09/18 12:16:07;;;;;;;6.03;5.60;;;;;;;32.10;61.26;100703.63;5039171;27;2700746;-36
2021/09/18 12:18:57;;;;;;;5.75;5.30;;;;;;;32.08;61.30;100697.59;5082014;27;44621;-36
2021/09/18 12:21:47;;;;;;;7.00;6.60;;;;;;;31.65;61.45;100640.84;5084274;27;44386;-36
2021/09/18 12:24:32;;;;;;;9.65;8.70;;;;;;;32.02;61.10;100693.13;5082286;27;44246;-35
2021/09/18 12:27:27;;;;;;;8.48;7.85;;;;;;;31.93;61.81;100683.63;5063875;27;44495;-36
2021/09/18 12:30:24;;;;;;;9.25;8.45;;;;;;;31.96;61.71;100705.72;5111967;27;43740;-35
2021/09/18 12:33:17;;;;;;;7.65;7.07;;;;;;;31.86;61.21;100683.72;5094672;27;44429;-35
2021/09/18 12:36:12;;;;;;;7.90;7.22;;;;;;;31.60;61.67;100661.34;5048509;27;43797;-36
2021/09/18 12:39:01;;;;;;;7.85;7.28;;;;;;;31.96;61.14;100711.16;5059061;27;44561;-36
2021/09/18 12:42:06;;;;;;;6.72;6.32;;;;;;;31.76;61.93;100695.13;5122290;27;43682;-35